Time;durP1;ratioP1;P1;durP2;ratioP2;P2;SDS_P1;SDS_P2;PMS_P1;PMS_P2;Temp;Humidity;BMP_temperature;BMP_pressure;BME280_temperature;BME280_humidity;BME280_pressure;Samples;Min_cycle;Max_cycle;Signal;HPM_P1;HPM_P2
2023/08/06 00:00:22;;;;;;;9.35;6.13;;;;;;;16.82;80.18;100265.81;5072530;28;20032;-71
2023/08/06 00:02:47;;;;;;;14.38;8.55;;;;;;;16.83;79.98;100264.66;5066706;28;20094;-71
2023/08/06 00:05:13;;;;;;;14.85;8.23;;;;;;;16.80;80.02;100261.63;5052063;28;20476;-71
2023/08/06 00:07:38;;;;;;;13.00;7.60;;;;;;;16.76;80.04;100272.63;5067617;28;20028;-71
2023/08/06 00:10:04;;;;;;;18.83;9.13;;;;;;;16.76;80.08;100260.59;5068816;28;20029;-72
2023/08/06 00:12:29;;;;;;;17.20;8.30;;;;;;;16.79;79.81;100266.41;5061025;28;20519;-71
2023/08/06 00:14:55;;;;;;;16.58;7.78;;;;;;;16.74;80.19;100260.91;5061235;28;20119;-71
2023/08/06 00:17:20;;;;;;;14.95;8.00;;;;;;;16.75;80.04;100270.16;5066473;28;20131;-71
2023/08/06 00:19:45;;;;;;;11.02;6.30;;;;;;;16.79;80.30;100259.97;5067564;28;20468;-70
2023/08/06 00:22:11;;;;;;;17.02;9.55;;;;;;;16.76;80.30;100249.38;5070733;28;20032;-71
2023/08/06 00:24:36;;;;;;;20.17;10.63;;;;;;;16.74;80.43;100246.91;5070388;28;20464;-71
2023/08/06 00:27:02;;;;;;;20.63;11.43;;;;;;;16.78;80.44;100249.88;5072592;28;20032;-71
2023/08/06 00:29:27;;;;;;;14.40;9.05;;;;;;;16.76;80.39;100250.22;5066505;28;20134;-71
2023/08/06 00:31:53;;;;;;;14.00;8.63;;;;;;;16.79;80.40;100248.78;5062573;28;20480;-71
2023/08/06 00:34:18;;;;;;;6.72;4.90;;;;;;;16.77;80.56;100260.28;5052000;28;20029;-71
2023/08/06 00:36:43;;;;;;;11.32;6.90;;;;;;;16.77;80.61;100251.88;5051583;28;20469;-71
2023/08/06 00:39:08;;;;;;;8.13;5.38;;;;;;;16.79;80.17;100246.81;5057168;28;20029;-70
2023/08/06 00:41:34;;;;;;;5.18;3.85;;;;;;;16.83;80.19;100245.03;5070415;28;20468;-71
2023/08/06 00:43:59;;;;;;;6.40;5.00;;;;;;;16.76;80.51;100250.22;5061657;28;20139;-71
2023/08/06 00:46:25;;;;;;;6.50;3.80;;;;;;;16.73;80.29;100245.22;5051844;28;20504;-70
2023/08/06 00:48:51;;;;;;;5.45;2.90;;;;;;;16.67;80.23;100249.25;5060532;28;20035;-71
2023/08/06 00:51:16;;;;;;;4.07;2.67;;;;;;;16.67;80.47;100240.84;5067330;28;20048;-71
2023/08/06 00:53:42;;;;;;;3.55;2.70;;;;;;;16.64;80.55;100247.06;5050978;28;20033;-71
2023/08/06 00:56:09;;;;;;;4.43;2.58;;;;;;;16.64;80.38;100242.28;5051871;28;20025;-71
2023/08/06 00:58:36;;;;;;;3.15;2.75;;;;;;;16.64;80.65;100247.06;5065576;28;20025;-72
2023/08/06 01:01:01;;;;;;;4.57;2.70;;;;;;;16.60;80.80;100251.63;5068904;28;20035;-71
2023/08/06 01:03:26;;;;;;;4.05;2.60;;;;;;;16.60;81.07;100240.41;5066423;28;20025;-72
2023/08/06 01:05:52;;;;;;;4.13;2.38;;;;;;;16.56;81.08;100239.34;5061059;28;20564;-71
2023/08/06 01:08:45;;;;;;;3.20;2.63;;;;;;;16.60;80.95;100238.44;5051442;28;20516;-71
2023/08/06 01:11:37;;;;;;;4.35;2.47;;;;;;;16.60;81.11;100238.44;5050507;28;20381;-71
2023/08/06 01:14:13;;;;;;;4.45;3.00;;;;;;;16.61;81.25;100236.44;5054122;28;20039;-71
2023/08/06 01:16:40;;;;;;;4.38;2.40;;;;;;;16.59;80.85;100233.97;5070412;28;20054;-71
2023/08/06 01:19:15;;;;;;;4.40;2.60;;;;;;;16.65;80.93;100229.09;5070497;28;20043;-71
2023/08/06 01:21:41;;;;;;;3.38;2.53;;;;;;;16.57;81.04;100238.22;5065859;28;20025;-71
2023/08/06 01:24:06;;;;;;;4.18;2.30;;;;;;;16.56;81.45;100233.75;5069945;28;20507;-71
2023/08/06 01:26:54;;;;;;;2.70;2.50;;;;;;;16.59;81.37;100239.56;5069785;28;20043;-71
2023/08/06 01:29:30;;;;;;;5.13;2.67;;;;;;;16.56;81.61;100245.78;5070894;28;20095;-71
2023/08/06 01:31:57;;;;;;;4.32;2.70;;;;;;;16.53;81.49;100246.41;5067952;28;20083;-71
2023/08/06 01:34:28;;;;;;;4.65;2.70;;;;;;;16.56;81.45;100236.56;5069820;28;20060;-71
2023/08/06 01:36:54;;;;;;;4.75;2.65;;;;;;;16.51;81.50;100233.84;5070619;28;20166;-71
2023/08/06 01:39:20;;;;;;;4.55;2.72;;;;;;;16.53;81.22;100234.38;5066588;28;20039;-71
2023/08/06 01:41:47;;;;;;;3.58;2.88;;;;;;;16.48;81.31;100243.69;5069680;28;20021;-72
2023/08/06 01:44:13;;;;;;;5.88;2.92;;;;;;;16.49;81.54;100233.31;5070932;28;20112;-72
2023/08/06 01:46:38;;;;;;;3.20;2.58;;;;;;;16.51;81.42;100236.66;5068252;28;20459;-70
2023/08/06 01:49:03;;;;;;;3.22;2.35;;;;;;;16.55;81.45;100232.09;5070831;28;20043;-71
2023/08/06 01:51:29;;;;;;;5.20;2.75;;;;;;;16.51;81.60;100231.88;5070096;28;20029;-71
2023/08/06 01:53:54;;;;;;;6.53;2.97;;;;;;;16.55;81.41;100226.50;5069813;28;20032;-70
2023/08/06 01:56:20;;;;;;;5.60;2.88;;;;;;;16.54;81.47;100224.81;5070354;28;20099;-71
2023/08/06 01:58:45;;;;;;;6.82;3.33;;;;;;;16.51;81.92;100231.88;5061359;28;20021;-71
2023/08/06 02:01:10;;;;;;;3.40;2.60;;;;;;;16.57;81.72;100235.41;5050641;28;20091;-71
2023/08/06 02:03:36;;;;;;;4.50;2.58;;;;;;;16.59;81.18;100233.97;5064207;28;20495;-71
2023/08/06 02:06:01;;;;;;;3.78;2.40;;;;;;;16.59;81.05;100233.16;5070287;28;20032;-71
2023/08/06 02:08:27;;;;;;;3.70;2.42;;;;;;;16.60;81.03;100230.03;5069238;28;20024;-71
2023/08/06 02:10:53;;;;;;;4.25;2.70;;;;;;;16.59;80.98;100233.16;5070241;28;20032;-71
2023/08/06 02:13:18;;;;;;;5.25;2.30;;;;;;;16.55;81.26;100232.94;5070354;28;20025;-71
2023/08/06 02:15:47;;;;;;;3.85;2.72;;;;;;;16.59;81.14;100235.94;5055076;28;20158;-71
2023/08/06 02:18:13;;;;;;;3.97;2.55;;;;;;;16.57;81.27;100243.81;5040016;28;20033;-71
2023/08/06 02:20:38;;;;;;;4.45;3.00;;;;;;;16.55;81.24;100237.69;5030277;28;20548;-71
2023/08/06 02:23:04;;;;;;;7.07;3.10;;;;;;;16.56;80.91;100237.38;5041302;28;20024;-71
2023/08/06 02:25:29;;;;;;;6.10;2.97;;;;;;;16.54;81.33;100244.44;5046784;28;20455;-70
2023/08/06 02:27:54;;;;;;;4.05;3.17;;;;;;;16.54;81.61;100233.22;5050226;28;20036;-71
2023/08/06 02:30:19;;;;;;;6.32;3.53;;;;;;;16.51;81.44;100236.66;5040536;28;20029;-70
2023/08/06 02:32:45;;;;;;;5.05;3.10;;;;;;;16.51;81.51;100242.25;5031839;28;20431;-70
2023/08/06 02:35:10;;;;;;;5.72;3.45;;;;;;;16.49;81.82;100238.91;5040237;28;20680;-71
2023/08/06 02:37:35;;;;;;;9.13;3.20;;;;;;;16.53;81.62;100239.97;5046953;28;20488;-70
2023/08/06 02:40:02;;;;;;;5.40;3.20;;;;;;;16.50;81.74;100233.00;5047702;28;20075;-70
2023/08/06 02:42:27;;;;;;;5.47;2.80;;;;;;;16.53;81.64;100228.75;5048246;28;20029;-71
2023/08/06 02:44:55;;;;;;;6.30;3.40;;;;;;;16.51;81.65;100229.09;5045688;28;20090;-70
2023/08/06 02:47:20;;;;;;;5.47;3.28;;;;;;;16.51;81.83;100226.28;5049552;28;20086;-70
2023/08/06 02:49:46;;;;;;;4.55;3.45;;;;;;;16.54;81.54;100225.63;5045940;28;20036;-71
2023/08/06 02:52:11;;;;;;;6.78;3.38;;;;;;;16.53;81.61;100229.59;5041269;28;20084;-70
2023/08/06 02:54:37;;;;;;;5.43;3.20;;;;;;;16.47;81.83;100230.84;5052362;28;20469;-70
2023/08/06 02:57:02;;;;;;;5.15;3.30;;;;;;;16.54;81.66;100231.25;5051725;28;20044;-70
2023/08/06 02:59:27;;;;;;;3.58;3.20;;;;;;;16.54;81.67;100222.00;5053728;28;20063;-70
2023/08/06 03:01:53;;;;;;;4.43;3.08;;;;;;;16.53;81.78;100223.16;5052203;28;20025;-70
2023/08/06 03:04:18;;;;;;;4.18;3.10;;;;;;;16.50;81.90;100223.78;5048010;28;20033;-70
2023/08/06 03:06:43;;;;;;;4.45;3.20;;;;;;;16.50;82.04;100223.78;5033834;28;20033;-70
2023/08/06 03:09:09;;;;;;;7.05;3.30;;;;;;;16.51;82.02;100222.66;5034124;28;20056;-70
2023/08/06 03:11:34;;;;;;;4.57;3.15;;;;;;;16.49;81.92;100227.72;5043505;28;20056;-70
2023/08/06 03:13:59;;;;;;;4.82;3.50;;;;;;;16.49;81.82;100224.91;5049507;28;20063;-70
2023/08/06 03:16:25;;;;;;;7.50;3.30;;;;;;;16.49;81.96;100228.53;5043316;28;20049;-71
2023/08/06 03:18:50;;;;;;;4.43;3.15;;;;;;;16.52;82.02;100227.09;5051510;28;20032;-71
2023/08/06 03:21:15;;;;;;;4.70;3.15;;;;;;;16.51;81.88;100223.47;5050828;28;20083;-71
2023/08/06 03:23:41;;;;;;;6.30;3.13;;;;;;;16.53;81.79;100225.97;5052079;28;20025;-71
2023/08/06 03:26:06;;;;;;;4.05;3.05;;;;;;;16.53;82.15;100225.97;5049379;28;20036;-70
2023/08/06 03:28:31;;;;;;;4.70;3.00;;;;;;;16.53;82.02;100231.56;5047621;28;20416;-71
2023/08/06 03:31:01;;;;;;;6.05;2.92;;;;;;;16.52;82.17;100227.09;5050967;28;20115;-71
2023/08/06 03:33:26;;;;;;;5.75;2.65;;;;;;;16.51;81.81;100242.25;5050533;28;20073;-71
2023/08/06 03:35:52;;;;;;;3.75;2.72;;;;;;;16.51;81.58;100225.47;5050560;28;20115;-71
2023/08/06 03:38:17;;;;;;;4.28;2.65;;;;;;;16.52;81.82;100229.91;5051991;28;20039;-71
2023/08/06 03:40:43;;;;;;;3.83;2.70;;;;;;;16.51;82.05;100234.69;5049761;28;20424;-71
2023/08/06 03:43:08;;;;;;;5.97;2.92;;;;;;;16.51;82.33;100234.69;5051979;28;20491;-71
2023/08/06 03:45:33;;;;;;;5.13;3.00;;;;;;;16.49;82.42;100233.31;5040076;28;20515;-71
2023/08/06 03:47:59;;;;;;;4.13;2.78;;;;;;;16.44;82.62;100226.66;5047575;28;20071;-70
2023/08/06 03:50:24;;;;;;;4.25;3.17;;;;;;;16.43;82.24;100230.63;5049379;28;20036;-71
2023/08/06 03:52:49;;;;;;;3.80;2.90;;;;;;;16.45;82.49;100233.09;5050927;28;20035;-70
2023/08/06 03:55:15;;;;;;;4.28;3.20;;;;;;;16.42;82.41;100234.53;5050619;28;20400;-70
2023/08/06 03:57:40;;;;;;;3.72;2.58;;;;;;;16.43;82.47;100241.81;5050628;28;20071;-70
2023/08/06 04:00:07;;;;;;;6.57;2.88;;;;;;;16.42;82.54;100244.91;5049663;28;20083;-70
2023/08/06 04:02:32;;;;;;;5.65;2.95;;;;;;;16.44;82.45;100237.06;5037460;28;20112;-70
2023/08/06 04:04:58;;;;;;;6.03;2.90;;;;;;;16.45;82.33;100235.91;5041395;28;20032;-70
2023/08/06 04:07:24;;;;;;;5.35;3.63;;;;;;;16.39;82.83;100235.19;5051214;28;20094;-70
2023/08/06 04:09:57;;;;;;;4.47;2.90;;;;;;;16.38;82.84;100236.28;5051080;28;20025;-70
2023/08/06 04:12:23;;;;;;;4.57;3.10;;;;;;;16.41;82.74;100246.06;5052253;28;20135;-70
2023/08/06 04:14:49;;;;;;;5.68;3.50;;;;;;;16.39;82.25;100242.75;5050135;28;20059;-71
2023/08/06 04:17:15;;;;;;;7.97;3.47;;;;;;;16.44;82.03;100246.28;5038039;28;20051;-70
2023/08/06 04:19:40;;;;;;;4.85;3.83;;;;;;;16.44;82.11;100243.47;5035212;28;20037;-70
2023/08/06 04:22:06;;;;;;;7.05;3.72;;;;;;;16.44;82.23;100249.09;5041985;28;20043;-70
2023/08/06 04:24:31;;;;;;;4.50;3.85;;;;;;;16.40;82.72;100250.84;5051018;28;20054;-70
2023/08/06 04:26:57;;;;;;;4.65;3.65;;;;;;;16.41;82.75;100246.88;5052230;28;20071;-70
2023/08/06 04:29:22;;;;;;;4.00;3.45;;;;;;;16.42;82.58;100247.72;5051130;28;20025;-70
2023/08/06 04:31:47;;;;;;;5.03;3.92;;;;;;;16.40;82.74;100248.03;5032668;28;20454;-70
2023/08/06 04:34:13;;;;;;;4.13;3.65;;;;;;;16.42;82.91;100259.75;5034551;28;20037;-70
2023/08/06 04:36:38;;;;;;;6.53;3.83;;;;;;;16.41;82.72;100258.09;5047617;28;20033;-70
2023/08/06 04:39:04;;;;;;;5.47;3.83;;;;;;;16.44;82.61;100263.09;5051982;28;20406;-70
2023/08/06 04:41:29;;;;;;;3.92;3.53;;;;;;;16.44;82.84;100259.47;5050903;28;20116;-71
2023/08/06 04:43:56;;;;;;;5.30;4.22;;;;;;;16.44;83.09;100265.06;5051402;28;20108;-70
2023/08/06 04:46:21;;;;;;;8.23;4.18;;;;;;;16.42;82.88;100264.53;5049908;28;20078;-70
2023/08/06 04:48:46;;;;;;;7.38;4.13;;;;;;;16.39;82.88;100265.16;5051507;28;20037;-70
2023/08/06 04:51:12;;;;;;;5.43;4.25;;;;;;;16.41;82.75;100266.50;5041113;28;20041;-70
2023/08/06 04:53:37;;;;;;;5.20;4.07;;;;;;;16.40;82.87;100262.03;5038401;28;20850;-70
2023/08/06 04:56:03;;;;;;;6.00;3.85;;;;;;;16.41;83.17;100266.50;5043362;28;20032;-70
2023/08/06 04:58:28;;;;;;;7.07;4.35;;;;;;;16.38;83.06;100266.28;5050543;28;20037;-70
2023/08/06 05:00:54;;;;;;;6.65;4.10;;;;;;;16.41;83.21;100274.06;5045622;28;20590;-70
2023/08/06 05:03:19;;;;;;;7.15;3.85;;;;;;;16.41;83.46;100269.28;5040044;28;20064;-71
2023/08/06 05:05:46;;;;;;;6.38;4.20;;;;;;;16.41;83.58;100269.28;5031047;28;20037;-71
2023/08/06 05:08:18;;;;;;;7.43;4.35;;;;;;;16.40;83.16;100284.44;5043670;28;20025;-70
2023/08/06 05:10:45;;;;;;;5.22;4.15;;;;;;;16.44;82.87;100284.66;5045404;28;20041;-70
2023/08/06 05:13:10;;;;;;;5.53;4.45;;;;;;;16.42;83.01;100279.34;5046184;28;20052;-70
2023/08/06 05:15:35;;;;;;;7.72;4.47;;;;;;;16.39;83.27;100280.00;5048368;28;20444;-70
2023/08/06 05:18:00;;;;;;;6.53;4.80;;;;;;;16.38;83.51;100289.50;5069297;28;20441;-70
2023/08/06 05:20:26;;;;;;;5.97;4.75;;;;;;;16.40;83.65;100280.81;5059099;28;20540;-70
2023/08/06 05:22:51;;;;;;;7.57;4.55;;;;;;;16.37;83.26;100287.84;5052185;28;20035;-70
2023/08/06 05:25:17;;;;;;;5.22;4.53;;;;;;;16.39;83.10;100305.19;5053724;28;20036;-70
2023/08/06 05:27:42;;;;;;;5.20;4.43;;;;;;;16.38;83.09;100289.50;5050815;28;20611;-70
2023/08/06 05:30:08;;;;;;;8.82;4.18;;;;;;;16.41;83.28;100296.47;5062859;28;20610;-70
2023/08/06 05:32:34;;;;;;;6.50;4.15;;;;;;;16.43;83.51;100292.25;5069798;28;20040;-70
2023/08/06 05:34:59;;;;;;;8.00;4.40;;;;;;;16.49;83.93;100308.97;5070058;28;20028;-71
2023/08/06 05:37:24;;;;;;;5.80;4.50;;;;;;;16.51;83.79;100298.28;5066058;28;20797;-71
2023/08/06 05:39:50;;;;;;;6.40;4.35;;;;;;;16.50;83.50;100311.44;5068664;28;20559;-71
2023/08/06 05:42:16;;;;;;;5.88;4.72;;;;;;;16.52;83.98;100313.94;5071460;28;20063;-70
2023/08/06 05:44:41;;;;;;;5.97;5.38;;;;;;;16.55;84.28;100324.56;5067923;28;20029;-71
2023/08/06 05:47:06;;;;;;;6.25;5.65;;;;;;;16.56;84.21;100321.44;5070062;28;20052;-71
2023/08/06 05:49:31;;;;;;;7.65;5.75;;;;;;;16.58;84.03;100327.53;5065086;28;20451;-70
2023/08/06 05:51:57;;;;;;;7.15;6.15;;;;;;;16.58;84.09;100330.34;5066977;28;20028;-71
2023/08/06 05:54:22;;;;;;;6.65;5.63;;;;;;;16.63;83.69;100335.06;5064106;28;20484;-71
2023/08/06 05:56:47;;;;;;;8.95;6.20;;;;;;;16.60;83.45;100338.47;5062490;28;20368;-71
2023/08/06 05:59:13;;;;;;;9.38;6.07;;;;;;;16.59;83.50;100337.63;5060591;28;20041;-71
2023/08/06 06:01:38;;;;;;;7.00;5.80;;;;;;;16.59;83.51;100345.22;5054804;28;20563;-71
2023/08/06 06:04:03;;;;;;;9.65;5.63;;;;;;;16.56;83.64;100346.66;5061781;28;20056;-70
2023/08/06 06:06:29;;;;;;;6.57;5.05;;;;;;;16.58;83.34;100347.16;5067997;28;20111;-71
2023/08/06 06:08:54;;;;;;;7.15;5.47;;;;;;;16.60;83.11;100346.88;5070175;28;20111;-71
2023/08/06 06:11:21;;;;;;;5.75;4.78;;;;;;;16.57;83.53;100353.09;5068883;28;20078;-71
2023/08/06 06:13:48;;;;;;;10.30;5.82;;;;;;;16.59;83.71;100362.03;5052262;28;20078;-71
2023/08/06 06:16:13;;;;;;;6.43;5.50;;;;;;;16.56;83.83;100360.66;5054665;28;20504;-71
2023/08/06 06:18:38;;;;;;;6.47;5.20;;;;;;;16.59;83.98;100367.63;5035966;28;20072;-71
2023/08/06 06:21:04;;;;;;;7.65;5.47;;;;;;;16.57;83.89;100364.28;5046449;28;20021;-71
2023/08/06 06:23:29;;;;;;;10.88;5.63;;;;;;;16.54;83.90;100376.94;5051770;28;20090;-71
2023/08/06 06:25:55;;;;;;;6.72;4.95;;;;;;;16.59;83.84;100378.84;5051129;28;20033;-70
2023/08/06 06:28:21;;;;;;;7.20;4.90;;;;;;;16.51;84.09;100377.56;5038112;28;20029;-71
2023/08/06 06:30:46;;;;;;;7.85;4.90;;;;;;;16.57;84.34;100386.69;5049058;28;20021;-71
2023/08/06 06:33:11;;;;;;;7.57;4.85;;;;;;;16.53;84.62;100385.66;5051554;28;20058;-71
2023/08/06 06:35:37;;;;;;;6.05;4.28;;;;;;;16.55;84.07;100386.19;5041048;28;20037;-71
2023/08/06 06:38:02;;;;;;;4.22;3.83;;;;;;;16.53;84.25;100394.88;5047345;28;20120;-67
2023/08/06 06:40:28;;;;;;;5.97;4.32;;;;;;;16.51;84.46;100387.94;5044148;28;20031;-66
2023/08/06 06:42:53;;;;;;;4.80;3.55;;;;;;;16.50;84.01;100389.88;5046585;28;20025;-71
2023/08/06 06:45:18;;;;;;;3.65;2.95;;;;;;;16.49;83.99;100399.44;5053298;28;20060;-71
2023/08/06 06:47:44;;;;;;;3.25;1.80;;;;;;;16.49;83.25;100412.59;5053734;28;20456;-69
2023/08/06 06:50:09;;;;;;;1.98;1.48;;;;;;;16.46;82.46;100414.03;5050631;28;20060;-69
2023/08/06 06:52:34;;;;;;;2.00;1.08;;;;;;;16.40;81.33;100429.28;5050519;28;20041;-71
2023/08/06 06:55:00;;;;;;;1.27;1.05;;;;;;;16.39;80.69;100424.81;5044091;28;20021;-70
2023/08/06 06:57:26;;;;;;;1.17;0.75;;;;;;;16.34;80.42;100422.88;5052553;28;20048;-71
2023/08/06 06:59:51;;;;;;;0.80;0.80;;;;;;;16.26;80.03;100431.97;5052867;28;20025;-69
2023/08/06 07:02:17;;;;;;;0.85;0.80;;;;;;;16.26;79.97;100433.94;5053766;28;20025;-69
2023/08/06 07:04:42;;;;;;;1.17;0.82;;;;;;;16.23;80.29;100426.13;5047703;28;20562;-73
2023/08/06 07:07:07;;;;;;;1.67;0.95;;;;;;;16.22;79.73;100430.91;5044871;28;20041;-73
2023/08/06 07:09:33;;;;;;;0.90;0.90;;;;;;;16.19;80.09;100440.75;5040188;28;20029;-75
2023/08/06 07:11:58;;;;;;;2.97;1.15;;;;;;;16.20;80.34;100445.22;5046715;28;20029;-73
2023/08/06 07:14:25;;;;;;;3.15;1.20;;;;;;;16.07;80.11;100450.72;5037826;28;20056;-72
2023/08/06 07:16:51;;;;;;;1.38;1.20;;;;;;;16.04;80.68;100451.34;5050267;28;20468;-71
2023/08/06 07:19:16;;;;;;;2.08;1.40;;;;;;;15.87;80.43;100454.59;5062310;28;20028;-71
2023/08/06 07:21:41;;;;;;;2.30;1.60;;;;;;;15.91;80.81;100464.91;5056505;28;20024;-75
2023/08/06 07:24:07;;;;;;;1.50;1.40;;;;;;;15.88;81.04;100473.09;5062647;28;20032;-74
2023/08/06 07:26:33;;;;;;;2.42;1.85;;;;;;;15.91;81.16;100470.50;5066939;28;20535;-76
2023/08/06 07:28:58;;;;;;;2.83;1.98;;;;;;;15.90;80.97;100470.81;5065139;28;20056;-73
2023/08/06 07:31:23;;;;;;;3.47;1.90;;;;;;;15.96;80.85;100475.22;5062587;28;20028;-70
2023/08/06 07:33:49;;;;;;;2.50;2.30;;;;;;;16.01;80.51;100479.91;5061418;28;20063;-70
2023/08/06 07:36:15;;;;;;;2.90;2.58;;;;;;;15.94;80.44;100489.50;5061068;28;20033;-71
2023/08/06 07:38:41;;;;;;;3.28;2.60;;;;;;;15.80;80.71;100484.91;5062439;28;20025;-72
2023/08/06 07:41:07;;;;;;;3.13;2.70;;;;;;;15.86;81.33;100494.91;5066723;28;20029;-69
2023/08/06 07:43:32;;;;;;;5.93;3.22;;;;;;;15.76;80.98;100493.09;5067634;28;20420;-70
2023/08/06 07:46:01;;;;;;;3.65;3.25;;;;;;;15.81;81.11;100498.63;5066621;28;20020;-69
2023/08/06 07:48:27;;;;;;;4.32;3.10;;;;;;;15.83;80.37;100506.69;5057127;28;20116;-70
2023/08/06 07:50:54;;;;;;;3.47;3.17;;;;;;;15.80;80.53;100505.34;5067149;28;20025;-71
2023/08/06 07:53:21;;;;;;;4.30;3.53;;;;;;;15.81;80.84;100509.81;5069721;28;20380;-70
2023/08/06 07:55:51;;;;;;;5.25;3.92;;;;;;;15.79;81.42;100509.25;5069957;28;20029;-70
2023/08/06 07:58:16;;;;;;;3.75;3.40;;;;;;;15.83;81.45;100507.53;5071748;28;20101;-69
2023/08/06 08:00:45;;;;;;;6.45;3.97;;;;;;;15.85;81.57;100507.25;5068483;28;20035;-70
2023/08/06 08:03:11;;;;;;;5.88;3.78;;;;;;;15.77;81.84;100511.53;5070836;28;20020;-68
2023/08/06 08:05:36;;;;;;;5.13;3.85;;;;;;;15.84;81.73;100498.03;5069093;28;20103;-69
2023/08/06 08:08:02;;;;;;;4.57;3.53;;;;;;;15.89;81.86;100499.94;5062871;28;20036;-72
2023/08/06 08:10:27;;;;;;;5.30;3.42;;;;;;;15.88;81.81;100503.88;5068696;28;20093;-69
2023/08/06 08:12:52;;;;;;;3.83;3.20;;;;;;;15.87;82.36;100508.59;5062277;28;20120;-72
2023/08/06 08:15:18;;;;;;;5.00;3.42;;;;;;;15.88;82.27;100507.50;5029070;28;1042037;-72
2023/08/06 08:17:43;;;;;;;4.88;3.50;;;;;;;15.88;82.18;100509.47;5066198;28;20025;-70
2023/08/06 08:20:09;;;;;;;7.43;3.58;;;;;;;15.83;82.66;100507.53;5060430;28;20762;-72
2023/08/06 08:22:34;;;;;;;4.82;3.38;;;;;;;15.89;82.78;100514.75;5066215;28;20036;-72
2023/08/06 08:25:00;;;;;;;4.68;3.38;;;;;;;15.92;82.68;100521.72;5059515;28;20039;-71
2023/08/06 08:27:26;;;;;;;6.80;3.53;;;;;;;15.94;82.92;100525.88;5057047;28;20036;-72
2023/08/06 08:29:51;;;;;;;7.57;3.15;;;;;;;15.91;82.80;100531.22;5051640;28;20028;-75
2023/08/06 08:32:16;;;;;;;5.65;3.28;;;;;;;15.96;82.61;100528.41;5061411;28;20381;-70
2023/08/06 08:34:42;;;;;;;5.40;3.20;;;;;;;15.95;82.78;100529.50;5066464;28;20040;-74
2023/08/06 08:37:07;;;;;;;6.03;3.55;;;;;;;15.90;82.65;100533.22;5067340;28;20020;-73
2023/08/06 08:39:32;;;;;;;6.60;3.25;;;;;;;15.84;82.69;100539.19;5067271;28;20037;-72
2023/08/06 08:41:58;;;;;;;6.25;2.80;;;;;;;15.90;82.70;100540.78;5066081;28;20384;-72
2023/08/06 08:44:28;;;;;;;5.90;2.85;;;;;;;15.82;82.78;100541.41;5059982;28;20107;-72
2023/08/06 08:46:53;;;;;;;5.68;2.20;;;;;;;15.76;83.01;100540.66;5071303;28;20420;-72
2023/08/06 08:49:21;;;;;;;5.78;2.70;;;;;;;15.67;82.76;100548.81;5071021;28;20037;-72
2023/08/06 08:51:48;;;;;;;7.90;2.92;;;;;;;15.68;83.09;100549.69;5071313;28;20047;-72
2023/08/06 08:54:15;;;;;;;8.88;2.85;;;;;;;15.78;82.77;100549.56;5071137;28;20024;-72
2023/08/06 08:56:40;;;;;;;5.63;2.72;;;;;;;15.73;82.99;100558.03;5068669;28;20039;-72
2023/08/06 08:59:05;;;;;;;5.88;3.17;;;;;;;15.73;83.07;100563.63;5057839;28;20388;-72
2023/08/06 09:01:32;;;;;;;5.43;3.15;;;;;;;15.77;82.64;100564.69;5062473;28;20082;-73
2023/08/06 09:03:59;;;;;;;5.03;3.13;;;;;;;15.81;82.58;100562.97;5070508;28;20025;-72
2023/08/06 09:06:27;;;;;;;7.63;3.10;;;;;;;15.82;82.32;100573.03;5071162;28;20392;-73
2023/08/06 09:09:08;;;;;;;8.25;3.15;;;;;;;15.86;82.03;100578.88;5071528;28;20103;-72
2023/08/06 09:11:41;;;;;;;5.15;3.35;;;;;;;15.89;82.12;100589.50;5070167;28;20492;-72
2023/08/06 09:14:08;;;;;;;5.15;3.35;;;;;;;15.90;82.01;100586.38;5055557;28;20063;-72
2023/08/06 09:16:37;;;;;;;5.18;3.00;;;;;;;15.93;81.91;100596.16;5050092;28;20045;-73
2023/08/06 09:19:13;;;;;;;6.57;3.97;;;;;;;15.89;82.04;100593.13;5051400;28;20028;-72
2023/08/06 09:21:42;;;;;;;6.13;3.30;;;;;;;15.92;81.90;100594.50;5056422;28;20055;-73
2023/08/06 09:24:09;;;;;;;7.65;3.53;;;;;;;15.91;81.44;100596.44;5070546;28;20024;-72
2023/08/06 09:26:34;;;;;;;4.75;3.05;;;;;;;15.92;81.74;100600.94;5070526;28;20484;-72
2023/08/06 09:29:00;;;;;;;6.38;3.47;;;;;;;15.93;81.59;100616.59;5056946;28;20072;-72
2023/08/06 09:31:32;;;;;;;6.85;3.60;;;;;;;15.93;81.45;100619.38;5050337;28;20460;-73
2023/08/06 09:34:01;;;;;;;4.97;3.63;;;;;;;15.91;82.05;100618.84;5051014;28;20031;-72
2023/08/06 09:36:27;;;;;;;6.35;3.40;;;;;;;15.93;81.66;100624.16;5050737;28;20392;-72
2023/08/06 09:38:52;;;;;;;4.72;2.90;;;;;;;15.94;81.57;100620.22;5050049;28;20037;-73
2023/08/06 09:41:28;;;;;;;6.70;3.70;;;;;;;15.96;81.88;100634.78;5050887;28;20033;-72
2023/08/06 09:43:53;;;;;;;6.78;3.35;;;;;;;15.92;81.37;100628.94;5067716;28;20392;-72
2023/08/06 09:46:19;;;;;;;5.22;3.20;;;;;;;15.91;81.53;100635.63;5058848;28;20043;-72
2023/08/06 09:48:48;;;;;;;6.40;3.10;;;;;;;15.93;81.90;100636.19;5050123;28;20032;-72
2023/08/06 09:51:14;;;;;;;6.43;3.30;;;;;;;15.98;81.80;100634.47;5050452;28;20489;-72
2023/08/06 09:53:40;;;;;;;5.65;2.80;;;;;;;16.00;81.36;100635.84;5049712;28;20036;-73
2023/08/06 09:56:06;;;;;;;7.80;3.05;;;;;;;15.99;81.55;100645.34;5050199;28;20443;-72
2023/08/06 09:58:32;;;;;;;6.22;3.05;;;;;;;16.01;81.23;100639.47;5049734;28;20021;-73
2023/08/06 10:00:59;;;;;;;5.68;2.83;;;;;;;15.93;81.62;100641.78;5058623;28;20033;-72
2023/08/06 10:03:25;;;;;;;5.30;3.30;;;;;;;15.96;81.81;100643.16;5068698;28;20458;-72
2023/08/06 10:05:51;;;;;;;4.18;2.80;;;;;;;15.98;81.71;100640.06;5069568;28;20036;-73
2023/08/06 10:08:16;;;;;;;8.50;3.17;;;;;;;16.00;81.38;100647.06;5070670;28;20028;-72
2023/08/06 10:10:43;;;;;;;5.00;3.25;;;;;;;15.99;81.71;100650.13;5070096;28;20039;-73
2023/08/06 10:13:09;;;;;;;6.28;3.20;;;;;;;16.00;81.82;100643.41;5069374;28;20115;-72
2023/08/06 10:15:38;;;;;;;4.78;2.60;;;;;;;16.02;81.86;100649.53;5070208;28;20052;-72
2023/08/06 10:18:06;;;;;;;4.30;2.75;;;;;;;16.03;81.79;100651.22;5066794;28;20116;-72
2023/08/06 10:20:35;;;;;;;5.05;2.83;;;;;;;16.00;81.58;100651.81;5068242;28;20028;-72
2023/08/06 10:23:06;;;;;;;6.18;2.75;;;;;;;15.97;81.50;100658.00;5064110;28;20029;-72
2023/08/06 10:25:33;;;;;;;7.40;3.65;;;;;;;15.99;81.10;100655.72;5053185;28;20361;-78
2023/08/06 10:27:59;;;;;;;6.15;2.90;;;;;;;16.01;81.09;100661.88;5059516;28;20052;-75
2023/08/06 10:30:30;;;;;;;6.03;3.63;;;;;;;15.99;81.32;100661.31;5066907;28;20468;-80
2023/08/06 10:33:02;;;;;;;8.05;3.65;;;;;;;16.01;81.31;100659.91;5069764;28;20028;-78
2023/08/06 10:35:31;;;;;;;7.72;3.15;;;;;;;15.95;81.19;100666.66;5066387;28;20035;-78
2023/08/06 10:38:03;;;;;;;4.35;2.90;;;;;;;15.99;81.90;100661.31;5056835;28;20024;-78
2023/08/06 10:40:30;;;;;;;5.97;3.05;;;;;;;16.02;81.86;100660.75;5058726;28;20036;-74
2023/08/06 10:42:58;;;;;;;4.85;3.22;;;;;;;16.03;81.92;100666.03;5057124;28;20020;-74
2023/08/06 10:45:28;;;;;;;4.75;3.05;;;;;;;16.03;82.24;100662.41;5068214;28;20043;-70
2023/08/06 10:47:54;;;;;;;8.15;3.45;;;;;;;16.05;82.30;100661.00;5065755;28;20116;-73
2023/08/06 10:50:20;;;;;;;7.65;3.30;;;;;;;16.05;82.57;100672.19;5064771;28;20127;-75
2023/08/06 10:52:46;;;;;;;5.35;2.88;;;;;;;16.17;83.02;100671.78;5069453;28;20410;-78
2023/08/06 10:55:13;;;;;;;7.32;3.30;;;;;;;16.40;84.08;100671.00;5066044;28;20028;-78
2023/08/06 10:57:38;;;;;;;6.78;3.25;;;;;;;16.56;82.36;100671.66;5057358;28;20103;-71
2023/08/06 11:00:06;;;;;;;6.70;3.22;;;;;;;16.60;80.84;100674.72;5054057;28;20043;-77
2023/08/06 11:02:35;;;;;;;4.85;2.92;;;;;;;16.60;80.65;100683.94;5065350;28;20051;-73
2023/08/06 11:05:08;;;;;;;5.53;3.10;;;;;;;16.55;80.42;100698.03;5070256;28;20067;-74
2023/08/06 11:07:33;;;;;;;;;;;;;;;16.65;80.78;100678.28;5066224;28;20055;-73
2023/08/06 11:10:07;;;;;;;5.38;2.95;;;;;;;16.57;80.88;100687.34;5070088;28;19920;-79
2023/08/06 11:12:33;;;;;;;5.55;3.10;;;;;;;16.56;80.52;100694.06;5073038;28;20024;-77
2023/08/06 11:14:59;;;;;;;4.53;2.83;;;;;;;16.56;81.32;100690.44;5071182;28;20031;-69
2023/08/06 11:17:26;;;;;;;5.75;3.00;;;;;;;16.54;81.28;100687.09;5061713;28;20575;-74
2023/08/06 11:19:53;;;;;;;3.17;2.80;;;;;;;16.55;81.22;100685.97;5061617;28;20032;-74